createdAt,value
2023-04-08T00:00:54.838Z,18.6500
2023-04-08T00:01:56.486Z,18.6915
2023-04-08T00:02:58.228Z,18.6469
2023-04-08T00:04:00.122Z,18.5938
2023-04-08T00:05:01.500Z,18.4781
2023-04-08T00:06:03.209Z,18.4965
2023-04-08T00:07:04.749Z,18.4073
2023-04-08T00:08:06.476Z,18.5196
2023-04-08T00:09:08.084Z,18.6350
2023-04-08T00:10:09.628Z,18.6508
2023-04-08T00:11:11.457Z,18.5962
2023-04-08T00:12:13.071Z,18.6231
2023-04-08T00:13:14.731Z,18.5850
2023-04-08T00:14:16.363Z,18.5350
2023-04-08T00:15:17.986Z,18.5485
2023-04-08T00:16:19.689Z,18.6227
2023-04-08T00:17:21.267Z,18.5781
2023-04-08T00:18:22.918Z,18.5046
2023-04-08T00:19:24.595Z,18.4896
2023-04-08T00:20:26.394Z,18.3696
2023-04-08T00:21:27.803Z,18.3604
2023-04-08T00:22:29.602Z,18.4604
2023-04-08T00:23:31.194Z,18.4288
2023-04-08T00:24:33.305Z,18.4688
2023-04-08T00:25:37.150Z,18.5138
2023-04-08T00:26:36.140Z,18.5927
2023-04-08T00:27:37.872Z,18.5400
2023-04-08T00:28:39.514Z,18.4865
2023-04-08T00:29:41.156Z,18.4973
2023-04-08T00:30:42.766Z,18.5450
2023-04-08T00:31:44.475Z,18.5808
2023-04-08T00:32:46.013Z,18.5546
2023-04-08T00:33:47.751Z,18.5485
2023-04-08T00:34:49.423Z,18.5588
2023-04-08T00:35:51.172Z,18.4815
2023-04-08T00:36:52.727Z,18.6035
2023-04-08T00:37:54.332Z,18.7654
2023-04-08T00:38:55.994Z,18.8312
2023-04-08T00:39:57.666Z,18.8069
2023-04-08T00:40:59.214Z,18.7731
2023-04-08T00:42:00.923Z,18.6735
2023-04-08T00:43:02.705Z,18.6185
2023-04-08T00:44:04.274Z,18.7158
2023-04-08T00:45:05.973Z,18.7700
2023-04-08T00:46:07.586Z,18.8096
2023-04-08T00:47:09.304Z,18.7950
2023-04-08T00:48:10.868Z,18.7196
2023-04-08T00:49:12.515Z,18.6546
2023-04-08T00:50:14.217Z,18.6150
2023-04-08T00:51:15.838Z,18.6996
2023-04-08T00:52:17.507Z,18.7788
2023-04-08T00:53:20.129Z,18.7842
2023-04-08T00:54:21.577Z,18.7846
2023-04-08T00:55:22.445Z,18.7488
2023-04-08T00:56:24.066Z,18.7188
2023-04-08T00:57:25.688Z,18.5827
2023-04-08T00:58:27.369Z,18.6750
2023-04-08T00:59:29.038Z,18.7612
2023-04-08T01:00:31.266Z,18.8069
2023-04-08T01:01:33.197Z,18.8258
2023-04-08T01:02:34.815Z,18.7981
2023-04-08T01:03:35.788Z,18.7350
2023-04-08T01:04:37.347Z,18.6519
2023-04-08T01:05:39.040Z,18.7104
2023-04-08T01:06:40.832Z,18.8015
2023-04-08T01:07:42.424Z,18.8235
2023-04-08T01:08:43.999Z,18.8212
2023-04-08T01:09:45.743Z,18.7692
2023-04-08T01:10:47.347Z,18.7542
2023-04-08T01:11:48.953Z,18.6600
2023-04-08T01:12:50.693Z,18.6846
2023-04-08T01:13:52.343Z,18.7823
2023-04-08T01:14:53.889Z,18.7969
2023-04-08T01:15:55.683Z,18.8231
2023-04-08T01:16:57.214Z,18.8023
2023-04-08T01:17:58.912Z,18.7942
2023-04-08T01:19:00.586Z,18.7788
2023-04-08T01:20:02.255Z,18.7758
2023-04-08T01:21:03.860Z,18.7815
2023-04-08T01:22:05.417Z,18.7531
2023-04-08T01:23:07.078Z,18.7485
2023-04-08T01:24:08.693Z,18.6700
2023-04-08T01:25:11.187Z,18.5581
2023-04-08T01:26:12.081Z,18.4996
2023-04-08T01:27:13.720Z,18.4342
2023-04-08T01:28:15.494Z,18.4300
2023-04-08T01:29:17.010Z,18.4812
2023-04-08T01:30:18.721Z,18.4119
2023-04-08T01:31:20.341Z,18.4558
2023-04-08T01:32:21.987Z,18.5100
2023-04-08T01:33:23.731Z,18.4704
2023-04-08T01:34:25.412Z,18.4373
2023-04-08T01:35:27.095Z,18.4912
2023-04-08T01:36:28.694Z,18.5454
2023-04-08T01:37:30.362Z,18.5365
2023-04-08T01:38:32.012Z,18.5215
2023-04-08T01:39:33.689Z,18.5735
2023-04-08T01:40:35.374Z,18.5019
2023-04-08T01:41:37.038Z,18.3700
2023-04-08T01:42:38.634Z,18.3404
2023-04-08T01:43:40.261Z,18.3600
2023-04-08T01:44:42.101Z,18.4231
2023-04-08T01:45:43.704Z,18.5792
2023-04-08T01:46:45.404Z,18.6888
2023-04-08T01:47:46.967Z,18.7431
2023-04-08T01:48:48.868Z,18.7385
2023-04-08T01:49:50.319Z,18.6669
2023-04-08T01:50:52.730Z,18.5900
2023-04-08T01:51:53.657Z,18.6088
2023-04-08T01:52:55.181Z,18.7254
2023-04-08T01:53:56.896Z,18.7362
2023-04-08T01:54:58.588Z,18.7835
2023-04-08T01:56:00.210Z,18.7677
2023-04-08T01:57:01.768Z,18.6873
2023-04-08T01:58:03.460Z,18.6292
2023-04-08T01:59:05.132Z,18.5365
2023-04-08T02:00:06.819Z,18.6104
2023-04-08T02:01:08.449Z,18.7373
2023-04-08T02:02:10.141Z,18.7788
2023-04-08T02:03:11.885Z,18.7650
2023-04-08T02:04:13.440Z,18.7300
2023-04-08T02:05:15.009Z,18.6712
2023-04-08T02:06:16.798Z,18.6412
2023-04-08T02:07:18.330Z,18.7404
2023-04-08T02:08:20.029Z,18.7642
2023-04-08T02:09:21.650Z,18.7838
2023-04-08T02:10:23.354Z,18.7458
2023-04-08T02:11:24.973Z,18.6731
2023-04-08T02:12:26.584Z,18.6662
2023-04-08T02:13:28.259Z,18.6577
2023-04-08T02:14:29.881Z,18.7569
2023-04-08T02:15:31.632Z,18.8285
2023-04-08T02:16:33.305Z,18.8465
2023-04-08T02:17:35.819Z,18.8250
2023-04-08T02:18:36.545Z,18.7800
2023-04-08T02:19:38.196Z,18.6696
2023-04-08T02:20:40.606Z,18.6858
2023-04-08T02:21:41.582Z,18.7796
2023-04-08T02:22:43.209Z,18.8223
2023-04-08T02:23:44.868Z,18.8231
2023-04-08T02:24:46.460Z,18.7850
2023-04-08T02:25:48.136Z,18.7388
2023-04-08T02:26:49.794Z,18.7042
2023-04-08T02:27:51.443Z,18.7515
2023-04-08T02:28:53.210Z,18.7881
2023-04-08T02:29:54.784Z,18.7996
2023-04-08T02:30:56.412Z,18.7896
2023-04-08T02:31:58.167Z,18.7669
2023-04-08T02:32:59.796Z,18.6719
2023-04-08T02:34:01.368Z,18.5531
2023-04-08T02:35:03.008Z,18.6404
2023-04-08T02:36:04.721Z,18.7073
2023-04-08T02:37:07.179Z,18.7504
2023-04-08T02:38:07.979Z,18.7108
2023-04-08T02:39:09.725Z,18.6219
2023-04-08T02:40:11.336Z,18.4119
2023-04-08T02:41:12.961Z,18.4273
2023-04-08T02:42:14.681Z,18.5323
2023-04-08T02:43:16.291Z,18.7235
2023-04-08T02:44:17.926Z,18.7981
2023-04-08T02:45:19.583Z,18.8035
2023-04-08T02:46:21.333Z,18.7708
2023-04-08T02:47:22.951Z,18.6815
2023-04-08T02:48:24.537Z,18.6165
2023-04-08T02:49:26.222Z,18.6838
2023-04-08T02:50:27.858Z,18.7804
2023-04-08T02:51:29.537Z,18.8169
2023-04-08T02:52:31.208Z,18.7946
2023-04-08T02:53:32.898Z,18.7438
2023-04-08T02:54:35.304Z,18.7188
2023-04-08T02:55:36.223Z,19.0135
2023-04-08T02:56:37.922Z,19.4008
2023-04-08T02:57:39.565Z,19.7892
2023-04-08T02:58:41.157Z,20.2108
2023-04-08T02:59:42.765Z,20.3512
2023-04-08T03:00:44.511Z,20.3700
2023-04-08T03:01:46.148Z,20.3319
2023-04-08T03:02:48.083Z,20.3077
2023-04-08T03:03:49.580Z,20.2946
2023-04-08T03:04:51.098Z,20.2877
2023-04-08T03:05:52.774Z,20.2919
2023-04-08T03:06:54.382Z,20.3096
2023-04-08T03:07:56.368Z,20.3212
2023-04-08T03:08:57.711Z,20.3238
2023-04-08T03:09:59.333Z,20.3173
2023-04-08T03:11:01.010Z,20.3592
2023-04-08T03:12:02.585Z,20.4185
2023-04-08T03:13:04.321Z,20.4415
2023-04-08T03:14:05.970Z,20.4658
2023-04-08T03:15:07.686Z,20.4762
2023-04-08T03:16:09.255Z,20.4565
2023-04-08T03:17:10.998Z,20.5023
2023-04-08T03:18:12.631Z,20.5408
2023-04-08T03:19:14.189Z,20.5577
2023-04-08T03:20:15.861Z,20.5873
2023-04-08T03:21:17.592Z,20.5950
2023-04-08T03:22:19.157Z,20.5842
2023-04-08T03:23:20.886Z,20.5158
2023-04-08T03:24:22.505Z,20.5465
2023-04-08T03:25:24.053Z,20.5831
2023-04-08T03:26:25.806Z,20.6385
2023-04-08T03:27:27.458Z,20.6846
2023-04-08T03:28:29.140Z,20.7027
2023-04-08T03:29:30.865Z,20.7104
2023-04-08T03:30:32.476Z,20.6469
2023-04-08T03:31:34.125Z,20.5931
2023-04-08T03:32:35.815Z,20.6669
2023-04-08T03:33:37.475Z,20.7031
2023-04-08T03:34:39.093Z,20.7485
2023-04-08T03:35:40.814Z,20.7604
2023-04-08T03:36:42.381Z,20.7362
2023-04-08T03:37:44.080Z,20.7242
2023-04-08T03:38:45.674Z,20.7231
2023-04-08T03:39:47.320Z,20.7292
2023-04-08T03:40:48.951Z,20.7458
2023-04-08T03:41:50.615Z,20.7831
2023-04-08T03:42:52.315Z,20.7904
2023-04-08T03:43:53.930Z,20.7958
2023-04-08T03:44:55.582Z,20.7838
2023-04-08T03:45:57.241Z,20.7588
2023-04-08T03:46:58.906Z,20.7727
2023-04-08T03:48:00.626Z,20.7938
2023-04-08T03:49:03.121Z,20.8242
2023-04-08T03:50:03.861Z,20.8523
2023-04-08T03:51:05.489Z,20.8519
2023-04-08T03:52:07.228Z,20.8296
2023-04-08T03:53:08.820Z,20.7573
2023-04-08T03:54:11.455Z,20.7715
2023-04-08T03:55:12.099Z,20.8169
2023-04-08T03:56:13.758Z,20.8746
2023-04-08T03:57:15.416Z,20.9212
2023-04-08T03:58:17.068Z,20.9277
2023-04-08T03:59:19.612Z,20.9104
2023-04-08T04:00:20.397Z,20.8688
2023-04-08T04:01:22.049Z,20.8304
2023-04-08T04:02:23.954Z,20.8000
2023-04-08T04:03:25.417Z,20.8404
2023-04-08T04:04:28.248Z,20.9077
2023-04-08T04:05:28.712Z,20.9312
2023-04-08T04:06:30.296Z,20.9554
2023-04-08T04:07:31.960Z,20.9281
2023-04-08T04:08:33.607Z,20.9031
2023-04-08T04:09:35.317Z,20.7885
2023-04-08T04:10:36.917Z,20.7635
2023-04-08T04:11:38.574Z,20.8058
2023-04-08T04:12:40.318Z,20.8654
2023-04-08T04:13:41.953Z,20.9108
2023-04-08T04:14:43.664Z,20.9092
2023-04-08T04:15:45.251Z,20.8973
2023-04-08T04:16:46.833Z,20.8181
2023-04-08T04:17:49.216Z,20.8265
2023-04-08T04:18:51.067Z,20.8777
2023-04-08T04:19:51.943Z,20.9485
2023-04-08T04:20:53.610Z,20.9535
2023-04-08T04:21:55.253Z,20.9454
2023-04-08T04:22:56.862Z,20.9262
2023-04-08T04:23:58.492Z,20.8746
2023-04-08T04:25:00.129Z,20.9227
2023-04-08T04:26:01.886Z,20.9896
2023-04-08T04:27:03.525Z,21.0315
2023-04-08T04:28:05.208Z,21.0238
2023-04-08T04:29:06.789Z,21.0069
2023-04-08T04:30:08.497Z,20.9192
2023-04-08T04:31:10.143Z,20.8919
2023-04-08T04:32:11.746Z,20.9615
2023-04-08T04:33:13.405Z,21.0146
2023-04-08T04:34:15.054Z,21.0431
2023-04-08T04:35:16.807Z,21.0412
2023-04-08T04:36:18.379Z,21.0285
2023-04-08T04:37:20.054Z,20.9523
2023-04-08T04:38:21.697Z,20.8885
2023-04-08T04:39:23.329Z,20.9535
2023-04-08T04:40:25.105Z,21.0177
2023-04-08T04:41:26.643Z,21.0615
2023-04-08T04:42:28.287Z,21.0638
2023-04-08T04:43:29.939Z,21.0473
2023-04-08T04:44:31.613Z,21.0446
2023-04-08T04:45:33.193Z,20.9288
2023-04-08T04:46:34.967Z,20.9092
2023-04-08T04:47:36.598Z,20.9469
2023-04-08T04:48:38.234Z,20.8596
2023-04-08T04:49:39.923Z,20.9092
2023-04-08T04:50:42.016Z,20.9442
2023-04-08T04:51:43.205Z,20.8985
2023-04-08T04:52:44.900Z,20.7892
2023-04-08T04:53:46.588Z,20.6992
2023-04-08T04:54:48.172Z,20.6969
2023-04-08T04:55:49.834Z,20.7292
2023-04-08T04:56:51.482Z,20.7069
2023-04-08T04:57:53.174Z,20.7108
2023-04-08T04:58:54.793Z,20.7488
2023-04-08T04:59:56.485Z,20.7927
2023-04-08T05:00:58.114Z,20.8415
2023-04-08T05:01:59.819Z,20.8619
2023-04-08T05:03:01.501Z,20.8950
2023-04-08T05:04:03.091Z,20.9269
2023-04-08T05:05:04.743Z,20.9912
2023-04-08T05:06:06.894Z,21.0004
2023-04-08T05:07:08.001Z,20.9877
2023-04-08T05:08:09.729Z,20.9377
2023-04-08T05:09:11.424Z,20.9058
2023-04-08T05:10:12.895Z,20.8781
2023-04-08T05:11:14.691Z,20.9131
2023-04-08T05:12:16.401Z,20.9462
2023-04-08T05:13:17.945Z,20.9765
2023-04-08T05:14:19.694Z,20.9969
2023-04-08T05:15:21.385Z,21.0358
2023-04-08T05:16:22.990Z,21.0323
2023-04-08T05:17:24.840Z,21.0096
2023-04-08T05:18:26.276Z,20.9550
2023-04-08T05:19:27.919Z,20.9085
2023-04-08T05:20:29.419Z,20.9177
2023-04-08T05:21:31.270Z,20.8831
2023-04-08T05:22:32.736Z,20.9258
2023-04-08T05:23:34.553Z,20.9665
2023-04-08T05:24:36.122Z,20.9696
2023-04-08T05:25:37.819Z,20.9646
2023-04-08T05:26:39.565Z,20.9196
2023-04-08T05:27:41.148Z,20.8823
2023-04-08T05:28:42.749Z,20.9023
2023-04-08T05:29:44.554Z,20.9123
2023-04-08T05:30:46.118Z,20.9000
2023-04-08T05:31:47.813Z,20.8923
2023-04-08T05:32:49.474Z,20.8762
2023-04-08T05:33:51.057Z,20.8908
2023-04-08T05:34:52.660Z,20.8838
2023-04-08T05:35:54.483Z,20.9115
2023-04-08T05:36:56.113Z,20.9446
2023-04-08T05:37:57.703Z,20.9581
2023-04-08T05:39:00.402Z,20.9738
2023-04-08T05:40:01.016Z,20.9473
2023-04-08T05:41:02.687Z,20.9023
2023-04-08T05:42:04.376Z,20.9065
2023-04-08T05:43:06.385Z,20.9792
2023-04-08T05:44:07.738Z,21.0842
2023-04-08T05:45:09.279Z,21.2254
2023-04-08T05:46:10.933Z,21.2712
2023-04-08T05:47:12.675Z,21.1992
2023-04-08T05:48:14.368Z,21.1365
2023-04-08T05:49:15.997Z,21.1946
2023-04-08T05:50:17.596Z,21.2835
2023-04-08T05:51:19.176Z,21.3769
2023-04-08T05:52:21.976Z,21.4077
2023-04-08T05:53:22.825Z,21.3362
2023-04-08T05:54:24.168Z,21.2831
2023-04-08T05:55:25.912Z,21.3208
2023-04-08T05:56:27.601Z,21.3885
2023-04-08T05:57:29.179Z,21.5000
2023-04-08T05:58:30.851Z,21.5162
2023-04-08T05:59:32.683Z,21.4146
2023-04-08T06:00:34.082Z,21.3654
2023-04-08T06:01:35.816Z,21.4377
2023-04-08T06:02:38.481Z,21.5108
2023-04-08T06:03:39.141Z,21.5958
2023-04-08T06:04:40.780Z,21.6092
2023-04-08T06:05:42.360Z,21.5100
2023-04-08T06:06:43.975Z,21.5023
2023-04-08T06:07:45.677Z,21.5877
2023-04-08T06:08:47.397Z,21.7004
2023-04-08T06:09:49.035Z,21.7623
2023-04-08T06:10:50.626Z,21.7292
2023-04-08T06:11:52.324Z,21.5950
2023-04-08T06:12:54.011Z,21.6212
2023-04-08T06:13:55.700Z,21.7327
2023-04-08T06:14:57.281Z,21.8050
2023-04-08T06:15:58.944Z,21.8273
2023-04-08T06:17:00.667Z,21.7727
2023-04-08T06:18:02.345Z,21.6665
2023-04-08T06:19:03.807Z,21.7181
2023-04-08T06:20:05.519Z,21.8200
2023-04-08T06:21:07.165Z,21.9235
2023-04-08T06:22:08.792Z,21.9388
2023-04-08T06:23:10.471Z,21.8277
2023-04-08T06:24:12.391Z,21.7881
2023-04-08T06:25:13.819Z,21.8242
2023-04-08T06:26:16.337Z,21.9308
2023-04-08T06:27:17.069Z,22.0396
2023-04-08T06:28:18.743Z,22.0204
2023-04-08T06:29:20.366Z,21.8788
2023-04-08T06:30:22.009Z,21.8985
2023-04-08T06:31:23.695Z,22.0527
2023-04-08T06:32:25.292Z,22.2131
2023-04-08T06:33:27.098Z,22.2162
2023-04-08T06:34:28.658Z,22.0677
2023-04-08T06:35:31.861Z,21.9854
2023-04-08T06:36:32.189Z,22.0623
2023-04-08T06:37:33.578Z,22.2112
2023-04-08T06:38:35.323Z,22.2992
2023-04-08T06:39:36.891Z,22.2946
2023-04-08T06:40:38.521Z,22.1873
2023-04-08T06:41:40.135Z,22.1069
2023-04-08T06:42:41.728Z,22.2119
2023-04-08T06:43:43.468Z,22.2808
2023-04-08T06:44:45.159Z,22.3054
2023-04-08T06:45:46.708Z,22.2954
2023-04-08T06:46:48.414Z,22.1977
2023-04-08T06:47:50.081Z,22.1915
2023-04-08T06:48:51.941Z,22.2873
2023-04-08T06:49:53.386Z,22.3758
2023-04-08T06:50:54.978Z,22.4331
2023-04-08T06:51:56.724Z,22.3465
2023-04-08T06:52:58.348Z,22.2927
2023-04-08T06:53:59.984Z,22.3165
2023-04-08T06:55:01.960Z,22.4381
2023-04-08T06:56:03.217Z,22.5215
2023-04-08T06:57:05.820Z,22.5181
2023-04-08T06:58:06.499Z,22.4219
2023-04-08T06:59:08.268Z,22.4131
2023-04-08T07:00:09.949Z,22.5635
2023-04-08T07:01:12.236Z,22.7065
2023-04-08T07:02:13.152Z,22.7800
2023-04-08T07:03:14.864Z,22.7423
2023-04-08T07:04:16.571Z,22.6296
2023-04-08T07:05:18.126Z,22.6258
2023-04-08T07:06:19.737Z,22.7608
2023-04-08T07:07:21.433Z,22.9188
2023-04-08T07:08:23.045Z,23.0162
2023-04-08T07:09:24.752Z,22.9196
2023-04-08T07:10:26.423Z,22.7731
2023-04-08T07:11:28.033Z,22.7688
2023-04-08T07:12:30.254Z,22.8604
2023-04-08T07:13:31.331Z,22.9577
2023-04-08T07:14:33.073Z,22.9265
2023-04-08T07:15:34.608Z,22.7481
2023-04-08T07:16:36.225Z,22.6173
2023-04-08T07:17:38.875Z,22.6881
2023-04-08T07:18:39.596Z,22.7877
2023-04-08T07:19:41.514Z,22.9377
2023-04-08T07:20:42.790Z,22.8912
2023-04-08T07:21:44.498Z,22.7181
2023-04-08T07:22:46.104Z,22.6715
2023-04-08T07:23:48.294Z,22.7454
2023-04-08T07:24:49.462Z,22.8731
2023-04-08T07:25:51.066Z,23.0188
2023-04-08T07:26:52.725Z,22.9442
2023-04-08T07:27:55.256Z,22.7512
2023-04-08T07:28:56.018Z,22.7408
2023-04-08T07:29:57.790Z,22.7777
2023-04-08T07:30:59.322Z,22.9377
2023-04-08T07:32:00.938Z,23.0527
2023-04-08T07:33:02.673Z,22.9373
2023-04-08T07:34:04.281Z,22.7512
2023-04-08T07:35:06.262Z,22.7669
2023-04-08T07:36:07.568Z,22.8012
2023-04-08T07:37:09.191Z,22.9746
2023-04-08T07:38:11.830Z,23.0827
2023-04-08T07:39:12.461Z,22.9573
2023-04-08T07:40:14.311Z,22.7988
2023-04-08T07:41:15.830Z,22.8315
2023-04-08T07:42:17.421Z,22.8838
2023-04-08T07:43:19.099Z,23.0658
2023-04-08T07:44:20.736Z,23.1519
2023-04-08T07:45:22.419Z,23.0035
2023-04-08T07:46:24.132Z,22.7992
2023-04-08T07:47:25.805Z,22.8362
2023-04-08T07:48:27.360Z,22.8258
2023-04-08T07:49:29.013Z,23.0262
2023-04-08T07:50:30.902Z,23.1404
2023-04-08T07:51:32.467Z,22.9946
2023-04-08T07:52:34.022Z,22.8050
2023-04-08T07:53:35.726Z,22.8785
2023-04-08T07:54:37.352Z,22.9738
2023-04-08T07:55:39.136Z,23.1669
2023-04-08T07:56:40.710Z,23.2150
2023-04-08T07:57:42.384Z,22.9908
2023-04-08T07:58:44.091Z,22.8469
2023-04-08T07:59:45.628Z,22.9000
2023-04-08T08:00:47.467Z,23.0358
2023-04-08T08:01:49.251Z,23.2265
2023-04-08T08:02:50.577Z,23.2085
2023-04-08T08:03:53.021Z,22.9773
2023-04-08T08:04:53.910Z,22.8746
2023-04-08T08:05:55.918Z,22.9650
2023-04-08T08:06:57.231Z,23.1396
2023-04-08T08:07:58.917Z,23.2888
2023-04-08T08:09:01.272Z,23.2419
2023-04-08T08:10:02.104Z,23.0169
2023-04-08T08:11:03.882Z,23.0488
2023-04-08T08:12:05.396Z,23.1035
2023-04-08T08:13:07.057Z,23.2427
2023-04-08T08:14:08.714Z,23.3623
2023-04-08T08:15:10.537Z,23.2515
2023-04-08T08:16:12.371Z,23.0300
2023-04-08T08:17:13.657Z,23.0654
2023-04-08T08:18:15.398Z,23.1388
2023-04-08T08:19:17.018Z,23.3585
2023-04-08T08:20:18.725Z,23.4558
2023-04-08T08:21:20.312Z,23.2808
2023-04-08T08:22:21.926Z,23.1042
2023-04-08T08:23:23.585Z,23.1969
2023-04-08T08:24:25.242Z,23.1823
2023-04-08T08:25:26.982Z,23.3715
2023-04-08T08:26:28.612Z,23.4531
2023-04-08T08:27:30.282Z,23.2788
2023-04-08T08:28:31.924Z,23.1031
2023-04-08T08:29:33.587Z,23.1346
2023-04-08T08:30:35.202Z,23.1381
2023-04-08T08:31:36.971Z,23.3365
2023-04-08T08:32:38.530Z,23.4481
2023-04-08T08:33:40.106Z,23.2542
2023-04-08T08:34:41.807Z,23.1092
2023-04-08T08:35:43.421Z,23.1669
2023-04-08T08:36:45.079Z,23.2046
2023-04-08T08:37:46.708Z,23.4054
2023-04-08T08:38:48.325Z,23.4665
2023-04-08T08:39:50.196Z,23.2681
2023-04-08T08:40:51.696Z,23.1500
2023-04-08T08:41:53.319Z,23.2288
2023-04-08T08:42:54.955Z,23.3019
2023-04-08T08:43:56.641Z,23.5138
2023-04-08T08:44:58.291Z,23.5173
2023-04-08T08:45:59.934Z,23.3123
2023-04-08T08:47:02.564Z,23.2458
2023-04-08T08:48:03.285Z,23.3123
2023-04-08T08:49:04.874Z,23.4796
2023-04-08T08:50:06.609Z,23.6762
2023-04-08T08:51:08.163Z,23.6512
2023-04-08T08:52:09.888Z,23.4304
2023-04-08T08:53:12.672Z,23.3727
2023-04-08T08:54:13.185Z,23.4654
2023-04-08T08:55:32.510Z,23.6750
2023-04-08T08:56:18.352Z,23.8062
2023-04-08T08:57:18.032Z,23.7023
2023-04-08T08:58:19.711Z,23.4542
2023-04-08T08:59:21.912Z,23.4419
2023-04-08T09:00:23.004Z,23.4996
2023-04-08T09:01:25.360Z,23.7292
2023-04-08T09:02:26.424Z,23.8038
2023-04-08T09:03:28.396Z,23.6515
2023-04-08T09:04:29.641Z,23.4219
2023-04-08T09:05:31.306Z,23.4538
2023-04-08T09:06:32.925Z,23.4888
2023-04-08T09:07:34.547Z,23.7454
2023-04-08T09:08:36.207Z,23.7992
2023-04-08T09:09:38.486Z,23.5923
2023-04-08T09:10:39.606Z,23.3996
2023-04-08T09:11:41.199Z,23.4104
2023-04-08T09:12:42.921Z,23.4765
2023-04-08T09:13:44.447Z,23.7165
2023-04-08T09:14:46.102Z,23.7962
2023-04-08T09:15:47.744Z,23.6223
2023-04-08T09:16:49.525Z,23.4623
2023-04-08T09:17:51.517Z,23.5585
2023-04-08T09:18:52.798Z,23.7142
2023-04-08T09:19:54.411Z,23.8996
2023-04-08T09:20:56.094Z,24.0135
2023-04-08T09:21:58.056Z,23.8262
2023-04-08T09:22:59.354Z,23.6800
2023-04-08T09:24:00.974Z,23.7292
2023-04-08T09:25:02.637Z,23.8285
2023-04-08T09:26:04.334Z,24.0850
2023-04-08T09:27:06.009Z,24.1673
2023-04-08T09:28:07.631Z,23.9212
2023-04-08T09:29:24.360Z,23.6527
2023-04-08T09:30:10.908Z,23.6000
2023-04-08T09:31:12.648Z,23.5962
2023-04-08T09:32:14.185Z,23.7573
2023-04-08T09:33:15.949Z,23.7981
2023-04-08T09:34:17.475Z,23.6058
2023-04-08T09:35:19.194Z,23.3369
2023-04-08T09:36:20.833Z,23.3054
2023-04-08T09:37:22.474Z,23.3115
2023-04-08T09:38:24.202Z,23.4915
2023-04-08T09:39:25.805Z,23.6058
2023-04-08T09:40:27.545Z,23.4331
2023-04-08T09:41:29.153Z,23.2192
2023-04-08T09:42:30.745Z,23.1681
2023-04-08T09:43:33.031Z,23.2231
2023-04-08T09:44:34.189Z,23.3869
2023-04-08T09:45:35.773Z,23.6146
2023-04-08T09:46:37.328Z,23.6162
2023-04-08T09:47:39.052Z,23.3931
2023-04-08T09:48:40.728Z,23.2896
2023-04-08T09:49:42.373Z,23.3642
2023-04-08T09:50:44.081Z,23.5788
2023-04-08T09:51:45.656Z,23.7908
2023-04-08T09:52:47.319Z,23.7992
2023-04-08T09:53:49.184Z,23.6135
2023-04-08T09:54:50.605Z,23.5335
2023-04-08T09:55:52.266Z,23.5919
2023-04-08T09:56:53.960Z,23.7708
2023-04-08T09:57:55.602Z,23.9915
2023-04-08T09:58:57.499Z,23.9838
2023-04-08T09:59:58.925Z,23.8535
2023-04-08T10:01:00.564Z,23.8246
2023-04-08T10:02:02.269Z,23.9396
2023-04-08T10:03:03.932Z,24.1323
2023-04-08T10:04:05.570Z,24.1642
2023-04-08T10:05:08.405Z,23.9981
2023-04-08T10:06:08.804Z,23.8515
2023-04-08T10:07:10.398Z,23.8862
2023-04-08T10:08:12.022Z,24.0362
2023-04-08T10:09:14.527Z,24.1792
2023-04-08T10:10:15.366Z,24.1631
2023-04-08T10:11:16.981Z,23.9842
2023-04-08T10:12:18.718Z,23.8581
2023-04-08T10:13:20.319Z,23.9231
2023-04-08T10:14:21.986Z,24.0931
2023-04-08T10:15:23.556Z,24.2423
2023-04-08T10:16:25.275Z,24.2081
2023-04-08T10:17:27.771Z,23.9969
2023-04-08T10:18:28.534Z,23.9385
2023-04-08T10:19:30.211Z,24.1477
2023-04-08T10:20:31.840Z,24.3154
2023-04-08T10:21:33.635Z,24.4873
2023-04-08T10:22:35.162Z,24.3881
2023-04-08T10:23:36.797Z,24.1812
2023-04-08T10:24:38.435Z,24.1177
2023-04-08T10:25:40.093Z,24.2442
2023-04-08T10:26:41.786Z,24.4088
2023-04-08T10:27:43.400Z,24.5923
2023-04-08T10:28:45.050Z,24.4942
2023-04-08T10:29:47.104Z,24.3469
2023-04-08T10:30:49.101Z,24.3773
2023-04-08T10:31:49.917Z,24.6419
2023-04-08T10:32:51.590Z,24.8435
2023-04-08T10:33:53.177Z,24.9012
2023-04-08T10:34:54.862Z,24.6962
2023-04-08T10:35:56.510Z,24.4288
2023-04-08T10:36:58.835Z,24.4204
2023-04-08T10:37:59.889Z,24.4985
2023-04-08T10:39:01.616Z,24.6142
2023-04-08T10:40:03.188Z,24.5162
2023-04-08T10:41:04.782Z,24.2288
2023-04-08T10:42:06.460Z,24.0485
2023-04-08T10:43:08.129Z,24.1058
2023-04-08T10:44:09.849Z,24.1196
2023-04-08T10:45:11.466Z,24.2673
2023-04-08T10:46:13.128Z,24.2235
2023-04-08T10:47:14.725Z,23.9400
2023-04-08T10:48:16.404Z,23.7915
2023-04-08T10:49:18.013Z,23.8527
2023-04-08T10:50:19.750Z,24.0562
2023-04-08T10:51:21.403Z,24.1950
2023-04-08T10:52:23.035Z,24.0373
2023-04-08T10:53:24.754Z,23.7712
2023-04-08T10:54:26.361Z,23.6558
2023-04-08T10:55:28.841Z,23.7212
2023-04-08T10:56:29.591Z,23.8412
2023-04-08T10:57:31.274Z,24.0196
2023-04-08T10:58:32.920Z,23.9054
2023-04-08T10:59:34.710Z,23.7258
2023-04-08T11:00:36.264Z,23.7200
2023-04-08T11:01:38.019Z,23.8135
2023-04-08T11:02:39.703Z,24.0054
2023-04-08T11:03:41.410Z,24.1604
2023-04-08T11:04:42.924Z,23.9992
2023-04-08T11:05:44.555Z,23.8085
2023-04-08T11:06:46.607Z,23.7992
2023-04-08T11:07:47.876Z,23.9300
2023-04-08T11:08:49.418Z,24.0719
2023-04-08T11:09:51.171Z,24.0981
2023-04-08T11:10:52.884Z,23.9712
2023-04-08T11:11:54.411Z,23.8750
2023-04-08T11:12:56.120Z,23.9562
2023-04-08T11:13:58.504Z,24.1458
2023-04-08T11:14:59.353Z,24.2708
2023-04-08T11:16:02.156Z,24.2069
2023-04-08T11:17:02.656Z,24.1004
2023-04-08T11:18:04.414Z,24.0638
2023-04-08T11:19:05.970Z,24.1985
2023-04-08T11:20:07.599Z,24.3250
2023-04-08T11:21:09.213Z,24.4673
2023-04-08T11:22:11.374Z,24.3931
2023-04-08T11:23:12.410Z,24.3269
2023-04-08T11:24:14.146Z,24.3258
2023-04-08T11:25:15.728Z,24.4469
2023-04-08T11:26:17.468Z,24.6296
2023-04-08T11:27:19.079Z,24.7592
2023-04-08T11:28:20.660Z,24.7335
2023-04-08T11:29:22.369Z,24.6727
2023-04-08T11:30:24.006Z,24.6012
2023-04-08T11:31:25.743Z,24.6958
2023-04-08T11:32:27.313Z,24.8246
2023-04-08T11:33:28.981Z,24.9904
2023-04-08T11:34:30.588Z,24.9823
2023-04-08T11:35:32.318Z,24.8900
2023-04-08T11:36:33.962Z,24.8312
2023-04-08T11:37:35.630Z,24.8342
2023-04-08T11:38:37.255Z,24.9235
2023-04-08T11:39:38.830Z,25.0750
2023-04-08T11:40:41.844Z,25.2454
2023-04-08T11:41:42.296Z,25.1985
2023-04-08T11:42:46.027Z,25.0958
2023-04-08T11:43:45.531Z,25.0400
2023-04-08T11:44:47.123Z,25.0942
2023-04-08T11:45:48.734Z,25.2042
2023-04-08T11:46:50.647Z,25.3131
2023-04-08T11:47:52.105Z,25.3515
2023-04-08T11:48:53.705Z,25.2981
2023-04-08T11:49:55.434Z,25.2185
2023-04-08T11:50:57.040Z,25.2035
2023-04-08T11:51:58.740Z,25.2450
2023-04-08T11:53:00.401Z,25.3296
2023-04-08T11:54:02.366Z,25.4200
2023-04-08T11:55:03.662Z,25.3708
2023-04-08T11:56:05.312Z,25.3250
2023-04-08T11:57:07.018Z,25.2835
2023-04-08T11:58:09.397Z,25.2835
2023-04-08T11:59:10.150Z,25.3415
2023-04-08T12:00:11.920Z,25.4542
2023-04-08T12:01:13.471Z,25.5300
2023-04-08T12:02:15.286Z,25.5419
2023-04-08T12:03:16.898Z,25.4708
2023-04-08T12:04:18.652Z,25.4512
2023-04-08T12:05:20.113Z,25.4896
2023-04-08T12:06:21.728Z,25.6431
2023-04-08T12:07:23.481Z,25.7715
2023-04-08T12:08:25.076Z,25.8354
2023-04-08T12:09:26.681Z,25.8385
2023-04-08T12:10:28.331Z,25.7846
2023-04-08T12:11:29.945Z,25.7146
2023-04-08T12:12:31.701Z,25.6773
2023-04-08T12:13:33.290Z,25.6942
2023-04-08T12:14:34.914Z,25.7392
2023-04-08T12:15:37.513Z,25.7219
2023-04-08T12:16:38.427Z,25.6396
2023-04-08T12:17:40.055Z,25.4938
2023-04-08T12:18:41.639Z,25.3350
2023-04-08T12:19:43.250Z,25.2646
2023-04-08T12:20:44.888Z,25.2488
2023-04-08T12:21:46.657Z,25.2808
2023-04-08T12:22:48.347Z,25.2654
2023-04-08T12:23:50.114Z,25.1431
2023-04-08T12:24:51.493Z,24.9650
2023-04-08T12:25:53.124Z,24.8296